sensor_id;sensor_type;location;lat;lon;timestamp;pressure;altitude;pressure_sealevel;temperature;humidity
29825;BME280;16713;52.916;12.834;2024-03-02T00:00:53;100025.22;;;5.03;75.34
29825;BME280;16713;52.916;12.834;2024-03-02T00:03:19;100018.59;;;5.04;75.40
29825;BME280;16713;52.916;12.834;2024-03-02T00:05:50;100024.50;;;5.06;76.06
29825;BME280;16713;52.916;12.834;2024-03-02T00:08:24;100019.97;;;5.10;75.91
29825;BME280;16713;52.916;12.834;2024-03-02T00:10:57;100018.47;;;5.13;76.42
29825;BME280;16713;52.916;12.834;2024-03-02T00:13:24;100016.53;;;5.13;76.56
29825;BME280;16713;52.916;12.834;2024-03-02T00:15:55;100013.56;;;5.18;76.54
29825;BME280;16713;52.916;12.834;2024-03-02T00:18:32;100013.31;;;5.23;76.92
29825;BME280;16713;52.916;12.834;2024-03-02T00:21:00;100011.03;;;5.25;76.92
29825;BME280;16713;52.916;12.834;2024-03-02T00:23:29;100006.81;;;5.28;75.66
29825;BME280;16713;52.916;12.834;2024-03-02T00:25:57;100002.22;;;5.32;76.43
29825;BME280;16713;52.916;12.834;2024-03-02T00:28:29;100001.13;;;5.33;75.88
29825;BME280;16713;52.916;12.834;2024-03-02T00:33:36;100004.63;;;5.33;76.87
29825;BME280;16713;52.916;12.834;2024-03-02T00:36:03;99993.00;;;5.36;76.49
29825;BME280;16713;52.916;12.834;2024-03-02T00:38:31;99989.59;;;5.39;76.13
29825;BME280;16713;52.916;12.834;2024-03-02T00:41:05;99984.91;;;5.40;77.84
29825;BME280;16713;52.916;12.834;2024-03-02T00:43:41;99988.09;;;5.42;77.27
29825;BME280;16713;52.916;12.834;2024-03-02T00:46:16;99990.47;;;5.43;75.97
29825;BME280;16713;52.916;12.834;2024-03-02T00:48:53;99989.75;;;5.46;76.43
29825;BME280;16713;52.916;12.834;2024-03-02T00:51:25;99982.38;;;5.47;76.33
29825;BME280;16713;52.916;12.834;2024-03-02T00:53:52;99986.78;;;5.51;77.29
29825;BME280;16713;52.916;12.834;2024-03-02T00:56:23;99987.22;;;5.53;77.50
29825;BME280;16713;52.916;12.834;2024-03-02T00:58:50;99983.69;;;5.53;76.87
29825;BME280;16713;52.916;12.834;2024-03-02T01:01:17;99980.63;;;5.54;76.38
29825;BME280;16713;52.916;12.834;2024-03-02T01:03:43;99979.16;;;5.57;76.37
29825;BME280;16713;52.916;12.834;2024-03-02T01:06:10;99981.06;;;5.56;76.86
29825;BME280;16713;52.916;12.834;2024-03-02T01:08:38;99977.63;;;5.59;76.83
29825;BME280;16713;52.916;12.834;2024-03-02T01:11:04;99977.63;;;5.59;77.99
29825;BME280;16713;52.916;12.834;2024-03-02T01:13:31;99975.34;;;5.61;76.42
29825;BME280;16713;52.916;12.834;2024-03-02T01:15:58;99977.72;;;5.63;77.40
29825;BME280;16713;52.916;12.834;2024-03-02T01:18:25;99975.09;;;5.66;77.42
29825;BME280;16713;52.916;12.834;2024-03-02T01:20:52;99978.25;;;5.68;76.69
29825;BME280;16713;52.916;12.834;2024-03-02T01:23:19;99979.03;;;5.69;76.37
29825;BME280;16713;52.916;12.834;2024-03-02T01:25:49;99977.56;;;5.71;76.87
29825;BME280;16713;52.916;12.834;2024-03-02T01:28:16;99972.47;;;5.70;77.53
29825;BME280;16713;52.916;12.834;2024-03-02T01:30:43;99975.50;;;5.68;78.44
29825;BME280;16713;52.916;12.834;2024-03-02T01:33:09;99967.69;;;5.67;76.81
29825;BME280;16713;52.916;12.834;2024-03-02T01:35:36;99967.69;;;5.67;78.17
29825;BME280;16713;52.916;12.834;2024-03-02T01:38:04;99961.44;;;5.66;78.15
29825;BME280;16713;52.916;12.834;2024-03-02T01:40:33;99958.72;;;5.66;77.33
29825;BME280;16713;52.916;12.834;2024-03-02T01:43:00;99957.56;;;5.67;78.29
29825;BME280;16713;52.916;12.834;2024-03-02T01:45:27;99949.38;;;5.67;78.64
29825;BME280;16713;52.916;12.834;2024-03-02T01:47:53;99956.00;;;5.66;77.22
29825;BME280;16713;52.916;12.834;2024-03-02T01:50:33;99950.94;;;5.68;77.81
29825;BME280;16713;52.916;12.834;2024-03-02T01:53:00;99949.47;;;5.71;78.12
29825;BME280;16713;52.916;12.834;2024-03-02T01:55:29;99945.59;;;5.72;77.48
29825;BME280;16713;52.916;12.834;2024-03-02T01:57:57;99946.38;;;5.72;79.09
29825;BME280;16713;52.916;12.834;2024-03-02T02:00:24;99930.00;;;5.72;78.28
29825;BME280;16713;52.916;12.834;2024-03-02T02:02:53;99936.69;;;5.75;78.49
29825;BME280;16713;52.916;12.834;2024-03-02T02:05:19;99926.56;;;5.75;78.33
29825;BME280;16713;52.916;12.834;2024-03-02T02:07:46;99923.94;;;5.79;78.82
29825;BME280;16713;52.916;12.834;2024-03-02T02:10:13;99916.56;;;5.79;78.96
29825;BME280;16713;52.916;12.834;2024-03-02T02:12:39;99918.38;;;5.75;77.34
29825;BME280;16713;52.916;12.834;2024-03-02T02:17:51;99918.13;;;5.80;78.20
29825;BME280;16713;52.916;12.834;2024-03-02T02:20:18;99908.72;;;5.78;78.02
29825;BME280;16713;52.916;12.834;2024-03-02T02:22:55;99910.66;;;5.77;78.33
29825;BME280;16713;52.916;12.834;2024-03-02T02:25:21;99911.09;;;5.79;77.27
29825;BME280;16713;52.916;12.834;2024-03-02T02:27:48;99908.72;;;5.78;77.47
29825;BME280;16713;52.916;12.834;2024-03-02T02:30:26;99902.91;;;5.79;78.18
29825;BME280;16713;52.916;12.834;2024-03-02T02:32:53;99908.00;;;5.81;78.90
29825;BME280;16713;52.916;12.834;2024-03-02T02:35:20;99906.03;;;5.81;77.55
29825;BME280;16713;52.916;12.834;2024-03-02T02:37:47;99911.16;;;5.83;78.69
29825;BME280;16713;52.916;12.834;2024-03-02T02:40:14;99896.72;;;5.82;78.08
29825;BME280;16713;52.916;12.834;2024-03-02T02:42:40;99893.66;;;5.84;78.51
29825;BME280;16713;52.916;12.834;2024-03-02T02:45:07;99890.13;;;5.83;78.88
29825;BME280;16713;52.916;12.834;2024-03-02T02:47:34;99883.16;;;5.86;78.00
29825;BME280;16713;52.916;12.834;2024-03-02T02:50:03;99889.31;;;5.83;78.75
29825;BME280;16713;52.916;12.834;2024-03-02T02:52:33;99889.66;;;5.81;78.91
29825;BME280;16713;52.916;12.834;2024-03-02T02:55:03;99886.94;;;5.81;79.33
29825;BME280;16713;52.916;12.834;2024-03-02T02:57:31;99886.53;;;5.79;77.85
29825;BME280;16713;52.916;12.834;2024-03-02T03:00:09;99878.63;;;5.74;77.70
29825;BME280;16713;52.916;12.834;2024-03-02T03:02:48;99874.38;;;5.77;78.36
29825;BME280;16713;52.916;12.834;2024-03-02T03:05:17;99881.34;;;5.74;79.56
29825;BME280;16713;52.916;12.834;2024-03-02T03:07:44;99877.91;;;5.77;79.24
29825;BME280;16713;52.916;12.834;2024-03-02T03:10:11;99879.13;;;5.80;78.27
29825;BME280;16713;52.916;12.834;2024-03-02T03:12:37;99878.34;;;5.79;79.15
29825;BME280;16713;52.916;12.834;2024-03-02T03:15:04;99868.19;;;5.80;78.26
29825;BME280;16713;52.916;12.834;2024-03-02T03:17:33;99872.88;;;5.79;77.91
29825;BME280;16713;52.916;12.834;2024-03-02T03:19:59;99871.38;;;5.82;79.43
29825;BME280;16713;52.916;12.834;2024-03-02T03:22:27;99871.00;;;5.83;78.66
29825;BME280;16713;52.916;12.834;2024-03-02T03:24:53;99867.44;;;5.79;78.61
29825;BME280;16713;52.916;12.834;2024-03-02T03:27:20;99866.72;;;5.82;78.14
29825;BME280;16713;52.916;12.834;2024-03-02T03:29:46;99869.44;;;5.82;80.01
29825;BME280;16713;52.916;12.834;2024-03-02T03:32:13;99876.91;;;5.85;79.18
29825;BME280;16713;52.916;12.834;2024-03-02T03:34:40;99882.38;;;5.85;78.92
29825;BME280;16713;52.916;12.834;2024-03-02T03:37:06;99875.31;;;5.84;79.04
29825;BME280;16713;52.916;12.834;2024-03-02T03:39:34;99873.81;;;5.87;79.04
29825;BME280;16713;52.916;12.834;2024-03-02T03:42:02;99882.81;;;5.88;78.02
29825;BME280;16713;52.916;12.834;2024-03-02T03:44:29;99885.53;;;5.88;78.80
29825;BME280;16713;52.916;12.834;2024-03-02T03:46:55;99883.22;;;5.89;79.69
29825;BME280;16713;52.916;12.834;2024-03-02T03:49:21;99879.72;;;5.89;78.66
29825;BME280;16713;52.916;12.834;2024-03-02T03:51:48;99875.84;;;5.90;79.73
29825;BME280;16713;52.916;12.834;2024-03-02T03:54:14;99877.75;;;5.89;79.51
29825;BME280;16713;52.916;12.834;2024-03-02T03:56:41;99883.22;;;5.89;77.95
29825;BME280;16713;52.916;12.834;2024-03-02T03:59:07;99877.00;;;5.89;78.73
29825;BME280;16713;52.916;12.834;2024-03-02T04:01:34;99874.25;;;5.89;78.28
29825;BME280;16713;52.916;12.834;2024-03-02T04:04:00;99878.94;;;5.88;78.25
29825;BME280;16713;52.916;12.834;2024-03-02T04:06:29;99884.03;;;5.90;78.05
29825;BME280;16713;52.916;12.834;2024-03-02T04:08:56;99882.09;;;5.91;78.27
29825;BME280;16713;52.916;12.834;2024-03-02T04:11:22;99889.13;;;5.92;77.88
29825;BME280;16713;52.916;12.834;2024-03-02T04:13:49;99891.41;;;5.89;79.08
29825;BME280;16713;52.916;12.834;2024-03-02T04:16:15;99885.94;;;5.89;78.43
29825;BME280;16713;52.916;12.834;2024-03-02T04:18:42;99890.66;;;5.89;78.34
29825;BME280;16713;52.916;12.834;2024-03-02T04:21:08;99899.25;;;5.91;78.06
29825;BME280;16713;52.916;12.834;2024-03-02T04:23:35;99900.06;;;5.92;78.96
29825;BME280;16713;52.916;12.834;2024-03-02T04:26:01;99895.38;;;5.92;79.97
29825;BME280;16713;52.916;12.834;2024-03-02T04:28:28;99907.56;;;5.95;79.91
29825;BME280;16713;52.916;12.834;2024-03-02T04:30:54;99902.09;;;5.95;79.71
29825;BME280;16713;52.916;12.834;2024-03-02T04:33:21;99907.56;;;5.95;79.33
29825;BME280;16713;52.916;12.834;2024-03-02T04:35:47;99917.34;;;5.96;80.41
29825;BME280;16713;52.916;12.834;2024-03-02T04:38:14;99902.09;;;5.95;80.46
29825;BME280;16713;52.916;12.834;2024-03-02T04:40:40;99906.78;;;5.94;78.86
29825;BME280;16713;52.916;12.834;2024-03-02T04:43:06;99906.44;;;5.96;79.28
29825;BME280;16713;52.916;12.834;2024-03-02T04:45:38;99901.31;;;5.94;78.89
29825;BME280;16713;52.916;12.834;2024-03-02T04:48:04;99899.72;;;5.93;79.92
29825;BME280;16713;52.916;12.834;2024-03-02T04:50:31;99907.09;;;5.93;78.78
29825;BME280;16713;52.916;12.834;2024-03-02T04:52:57;99901.31;;;5.94;78.90
29825;BME280;16713;52.916;12.834;2024-03-02T04:55:24;99908.72;;;5.94;79.91
29825;BME280;16713;52.916;12.834;2024-03-02T04:57:53;99907.44;;;5.91;79.48
29825;BME280;16713;52.916;12.834;2024-03-02T05:00:23;99908.25;;;5.92;79.39
29825;BME280;16713;52.916;12.834;2024-03-02T05:02:49;99915.28;;;5.93;79.40
29825;BME280;16713;52.916;12.834;2024-03-02T05:05:16;99914.16;;;5.94;78.79
29825;BME280;16713;52.916;12.834;2024-03-02T05:07:43;99917.34;;;5.96;79.39
29825;BME280;16713;52.916;12.834;2024-03-02T05:10:10;99920.84;;;5.96;78.97
29825;BME280;16713;52.916;12.834;2024-03-02T05:12:38;99912.28;;;5.98;80.51
29825;BME280;16713;52.916;12.834;2024-03-02T05:15:12;99911.94;;;5.99;79.46
29825;BME280;16713;52.916;12.834;2024-03-02T05:17:41;99914.31;;;6.01;80.65
29825;BME280;16713;52.916;12.834;2024-03-02T05:20:09;99913.19;;;6.02;78.87
29825;BME280;16713;52.916;12.834;2024-03-02T05:22:37;99909.66;;;6.01;79.29
29825;BME280;16713;52.916;12.834;2024-03-02T05:25:04;99906.91;;;6.01;79.32
29825;BME280;16713;52.916;12.834;2024-03-02T05:27:31;99914.75;;;6.03;79.68
29825;BME280;16713;52.916;12.834;2024-03-02T05:29:59;99912.03;;;6.03;80.58
29825;BME280;16713;52.916;12.834;2024-03-02T05:32:26;99907.00;;;6.05;79.38
29825;BME280;16713;52.916;12.834;2024-03-02T05:34:55;99916.34;;;6.04;79.99
29825;BME280;16713;52.916;12.834;2024-03-02T05:37:21;99914.75;;;6.03;80.75
29825;BME280;16713;52.916;12.834;2024-03-02T05:39:48;99914.41;;;6.04;79.92
29825;BME280;16713;52.916;12.834;2024-03-02T05:42:15;99917.47;;;6.03;79.25
29825;BME280;16713;52.916;12.834;2024-03-02T05:44:43;99924.91;;;6.02;80.40
29825;BME280;16713;52.916;12.834;2024-03-02T05:47:09;99925.69;;;6.03;78.71
29825;BME280;16713;52.916;12.834;2024-03-02T05:49:36;99923.75;;;6.03;80.28
29825;BME280;16713;52.916;12.834;2024-03-02T05:52:03;99927.63;;;6.02;80.17
29825;BME280;16713;52.916;12.834;2024-03-02T05:54:29;99929.22;;;6.03;80.60
29825;BME280;16713;52.916;12.834;2024-03-02T05:56:56;99919.44;;;6.02;79.83
29825;BME280;16713;52.916;12.834;2024-03-02T05:59:22;99924.09;;;6.02;78.94
29825;BME280;16713;52.916;12.834;2024-03-02T06:01:49;99927.28;;;6.04;78.70
29825;BME280;16713;52.916;12.834;2024-03-02T06:04:18;99928.03;;;6.04;78.94
29825;BME280;16713;52.916;12.834;2024-03-02T06:06:45;99928.41;;;6.03;79.41
29825;BME280;16713;52.916;12.834;2024-03-02T06:09:12;99934.22;;;6.01;80.24
29825;BME280;16713;52.916;12.834;2024-03-02T06:11:40;99934.66;;;6.03;79.20
29825;BME280;16713;52.916;12.834;2024-03-02T06:14:08;99928.41;;;6.03;80.04
29825;BME280;16713;52.916;12.834;2024-03-02T06:16:34;99932.75;;;6.04;80.21
29825;BME280;16713;52.916;12.834;2024-03-02T06:19:01;99939.31;;;6.03;78.91
29825;BME280;16713;52.916;12.834;2024-03-02T06:21:28;99936.59;;;6.03;80.10
29825;BME280;16713;52.916;12.834;2024-03-02T06:23:54;99944.78;;;6.03;79.46
29825;BME280;16713;52.916;12.834;2024-03-02T06:26:21;99943.66;;;6.04;81.06
29825;BME280;16713;52.916;12.834;2024-03-02T06:28:51;99946.38;;;6.04;79.81
29825;BME280;16713;52.916;12.834;2024-03-02T06:31:18;99946.03;;;6.05;79.95
29825;BME280;16713;52.916;12.834;2024-03-02T06:33:44;99955.78;;;6.06;79.18
29825;BME280;16713;52.916;12.834;2024-03-02T06:36:11;99948.41;;;6.07;79.24
29825;BME280;16713;52.916;12.834;2024-03-02T06:38:38;99954.28;;;6.09;79.75
29825;BME280;16713;52.916;12.834;2024-03-02T06:41:09;99952.34;;;6.09;80.81
29825;BME280;16713;52.916;12.834;2024-03-02T06:43:35;99955.97;;;6.13;79.68
29825;BME280;16713;52.916;12.834;2024-03-02T06:46:02;99959.91;;;6.16;79.53
29825;BME280;16713;52.916;12.834;2024-03-02T06:48:29;99968.09;;;6.16;80.23
29825;BME280;16713;52.916;12.834;2024-03-02T06:50:56;99968.19;;;6.19;79.39
29825;BME280;16713;52.916;12.834;2024-03-02T06:53:24;99977.19;;;6.20;79.31
29825;BME280;16713;52.916;12.834;2024-03-02T06:55:51;99972.94;;;6.22;81.02
29825;BME280;16713;52.916;12.834;2024-03-02T06:58:17;99975.31;;;6.24;81.16
29825;BME280;16713;52.916;12.834;2024-03-02T07:00:44;99977.25;;;6.23;79.90
29825;BME280;16713;52.916;12.834;2024-03-02T07:03:10;99978.03;;;6.24;80.96
29825;BME280;16713;52.916;12.834;2024-03-02T07:05:37;99975.03;;;6.29;80.86
29825;BME280;16713;52.916;12.834;2024-03-02T07:08:03;99981.66;;;6.28;79.12
29825;BME280;16713;52.916;12.834;2024-03-02T07:10:31;99982.53;;;6.32;81.02
29825;BME280;16713;52.916;12.834;2024-03-02T07:12:58;99976.25;;;6.31;79.57
29825;BME280;16713;52.916;12.834;2024-03-02T07:15:24;99973.16;;;6.33;80.60
29825;BME280;16713;52.916;12.834;2024-03-02T07:17:54;99967.00;;;6.36;80.27
29825;BME280;16713;52.916;12.834;2024-03-02T07:20:20;99970.16;;;6.38;81.49
29825;BME280;16713;52.916;12.834;2024-03-02T07:22:47;99972.53;;;6.39;81.50
29825;BME280;16713;52.916;12.834;2024-03-02T07:25:14;99965.94;;;6.40;80.00
29825;BME280;16713;52.916;12.834;2024-03-02T07:27:43;99970.69;;;6.43;80.66
29825;BME280;16713;52.916;12.834;2024-03-02T07:30:13;99967.59;;;6.45;81.05
29825;BME280;16713;52.916;12.834;2024-03-02T07:32:40;99976.22;;;6.47;80.21
29825;BME280;16713;52.916;12.834;2024-03-02T07:35:08;99978.25;;;6.50;80.96
29825;BME280;16713;52.916;12.834;2024-03-02T07:37:34;99977.09;;;6.51;81.08
29825;BME280;16713;52.916;12.834;2024-03-02T07:40:01;99976.66;;;6.49;81.49
29825;BME280;16713;52.916;12.834;2024-03-02T07:42:27;99975.97;;;6.52;80.89
29825;BME280;16713;52.916;12.834;2024-03-02T07:44:55;99968.88;;;6.51;80.83
29825;BME280;16713;52.916;12.834;2024-03-02T07:47:22;99972.50;;;6.55;81.90
29825;BME280;16713;52.916;12.834;2024-03-02T07:49:48;99973.63;;;6.54;81.37
29825;BME280;16713;52.916;12.834;2024-03-02T07:52:14;99977.59;;;6.56;82.00
29825;BME280;16713;52.916;12.834;2024-03-02T07:54:41;99974.50;;;6.58;81.29
29825;BME280;16713;52.916;12.834;2024-03-02T07:57:07;99981.56;;;6.59;81.85
29825;BME280;16713;52.916;12.834;2024-03-02T07:59:34;99979.25;;;6.61;81.45
29825;BME280;16713;52.916;12.834;2024-03-02T08:02:01;99980.84;;;6.62;82.81
29825;BME280;16713;52.916;12.834;2024-03-02T08:04:28;99990.28;;;6.64;82.87
29825;BME280;16713;52.916;12.834;2024-03-02T08:06:54;99993.50;;;6.70;81.72
29825;BME280;16713;52.916;12.834;2024-03-02T08:09:21;100002.56;;;6.74;82.51
29825;BME280;16713;52.916;12.834;2024-03-02T08:11:47;100011.63;;;6.78;81.88
29825;BME280;16713;52.916;12.834;2024-03-02T08:14:14;100010.13;;;6.80;82.77
29825;BME280;16713;52.916;12.834;2024-03-02T08:16:41;100009.41;;;6.83;81.36
29825;BME280;16713;52.916;12.834;2024-03-02T08:19:07;100019.72;;;6.90;81.66
29825;BME280;16713;52.916;12.834;2024-03-02T08:21:35;100017.41;;;6.92;80.71
29825;BME280;16713;52.916;12.834;2024-03-02T08:24:02;100016.69;;;6.95;82.45
29825;BME280;16713;52.916;12.834;2024-03-02T08:26:29;100013.97;;;6.95;81.91
29825;BME280;16713;52.916;12.834;2024-03-02T08:28:58;100012.88;;;6.99;81.52
29825;BME280;16713;52.916;12.834;2024-03-02T08:31:25;100021.53;;;7.01;80.79
29825;BME280;16713;52.916;12.834;2024-03-02T08:33:51;100020.34;;;7.02;82.54
29825;BME280;16713;52.916;12.834;2024-03-02T08:36:18;100024.38;;;7.08;80.90
29825;BME280;16713;52.916;12.834;2024-03-02T08:38:45;100025.19;;;7.09;81.52
29825;BME280;16713;52.916;12.834;2024-03-02T08:41:12;100030.28;;;7.10;80.62
29825;BME280;16713;52.916;12.834;2024-03-02T08:43:40;100038.94;;;7.12;81.28
29825;BME280;16713;52.916;12.834;2024-03-02T08:46:07;100039.38;;;7.14;81.59
29825;BME280;16713;52.916;12.834;2024-03-02T08:48:34;100045.31;;;7.20;81.75
29825;BME280;16713;52.916;12.834;2024-03-02T08:51:01;100049.22;;;7.19;80.83
29825;BME280;16713;52.916;12.834;2024-03-02T08:53:28;100045.31;;;7.20;81.75
29825;BME280;16713;52.916;12.834;2024-03-02T08:55:55;100043.84;;;7.22;81.69
29825;BME280;16713;52.916;12.834;2024-03-02T08:58:23;100052.44;;;7.24;80.23
29825;BME280;16713;52.916;12.834;2024-03-02T09:00:49;100057.56;;;7.26;80.37
29825;BME280;16713;52.916;12.834;2024-03-02T09:03:16;100055.69;;;7.30;81.52
29825;BME280;16713;52.916;12.834;2024-03-02T09:05:43;100052.16;;;7.29;81.17
29825;BME280;16713;52.916;12.834;2024-03-02T09:08:09;100049.53;;;7.33;80.32
29825;BME280;16713;52.916;12.834;2024-03-02T09:10:35;100057.00;;;7.36;82.02
29825;BME280;16713;52.916;12.834;2024-03-02T09:13:02;100053.53;;;7.39;81.69
29825;BME280;16713;52.916;12.834;2024-03-02T09:15:29;100052.47;;;7.44;81.82
29825;BME280;16713;52.916;12.834;2024-03-02T09:17:57;100066.13;;;7.44;81.06
29825;BME280;16713;52.916;12.834;2024-03-02T09:20:24;100057.22;;;7.47;81.73
29825;BME280;16713;52.916;12.834;2024-03-02T09:22:50;100058.00;;;7.47;80.17
29825;BME280;16713;52.916;12.834;2024-03-02T09:25:17;100061.25;;;7.53;81.63
29825;BME280;16713;52.916;12.834;2024-03-02T09:27:43;100063.56;;;7.51;81.36
29825;BME280;16713;52.916;12.834;2024-03-02T09:30:10;100065.91;;;7.52;81.42
29825;BME280;16713;52.916;12.834;2024-03-02T09:32:37;100065.56;;;7.54;81.53
29825;BME280;16713;52.916;12.834;2024-03-02T09:35:04;100078.09;;;7.55;80.98
29825;BME280;16713;52.916;12.834;2024-03-02T09:37:31;100076.56;;;7.57;80.47
29825;BME280;16713;52.916;12.834;2024-03-02T09:39:57;100082.06;;;7.57;80.71
29825;BME280;16713;52.916;12.834;2024-03-02T09:42:24;100078.59;;;7.60;81.55
29825;BME280;16713;52.916;12.834;2024-03-02T09:44:52;100079.81;;;7.63;81.03
29825;BME280;16713;52.916;12.834;2024-03-02T09:47:19;100079.81;;;7.63;81.33
29825;BME280;16713;52.916;12.834;2024-03-02T09:49:46;100087.72;;;7.68;81.49
29825;BME280;16713;52.916;12.834;2024-03-02T09:52:12;100090.44;;;7.68;80.57
29825;BME280;16713;52.916;12.834;2024-03-02T09:54:39;100091.69;;;7.70;81.00
29825;BME280;16713;52.916;12.834;2024-03-02T09:57:06;100105.81;;;7.72;80.77
29825;BME280;16713;52.916;12.834;2024-03-02T09:59:32;100105.44;;;7.74;79.90
29825;BME280;16713;52.916;12.834;2024-03-02T10:02:00;100112.13;;;7.76;79.93
29825;BME280;16713;52.916;12.834;2024-03-02T10:04:28;100116.44;;;7.77;80.37
29825;BME280;16713;52.916;12.834;2024-03-02T10:09:38;100119.91;;;7.74;80.56
29825;BME280;16713;52.916;12.834;2024-03-02T10:12:06;100118.78;;;7.75;80.95
29825;BME280;16713;52.916;12.834;2024-03-02T10:14:33;100116.81;;;7.76;79.78
29825;BME280;16713;52.916;12.834;2024-03-02T10:17:07;100120.06;;;7.81;80.35
29825;BME280;16713;52.916;12.834;2024-03-02T10:19:34;100108.66;;;7.79;79.22
29825;BME280;16713;52.916;12.834;2024-03-02T10:22:02;100105.16;;;7.79;80.10
29825;BME280;16713;52.916;12.834;2024-03-02T10:24:39;100098.94;;;7.82;79.78
29825;BME280;16713;52.916;12.834;2024-03-02T10:27:10;100098.22;;;7.85;79.67
29825;BME280;16713;52.916;12.834;2024-03-02T10:29:41;100097.50;;;7.88;80.55
29825;BME280;16713;52.916;12.834;2024-03-02T10:32:09;100096.25;;;7.85;80.57
29825;BME280;16713;52.916;12.834;2024-03-02T10:34:36;100096.63;;;7.84;80.56
29825;BME280;16713;52.916;12.834;2024-03-02T10:37:03;100089.22;;;7.84;81.94
29825;BME280;16713;52.916;12.834;2024-03-02T10:39:32;100095.03;;;7.83;80.45
29825;BME280;16713;52.916;12.834;2024-03-02T10:41:59;100086.47;;;7.84;80.89
29825;BME280;16713;52.916;12.834;2024-03-02T10:44:26;100077.44;;;7.84;80.09
29825;BME280;16713;52.916;12.834;2024-03-02T10:46:53;100075.16;;;7.86;80.07
29825;BME280;16713;52.916;12.834;2024-03-02T10:49:22;100080.25;;;7.87;81.06
29825;BME280;16713;52.916;12.834;2024-03-02T10:51:50;100078.78;;;7.93;81.16
29825;BME280;16713;52.916;12.834;2024-03-02T10:54:16;100082.69;;;7.92;81.08
29825;BME280;16713;52.916;12.834;2024-03-02T10:56:46;100086.69;;;7.95;80.92
29825;BME280;16713;52.916;12.834;2024-03-02T11:01:48;100078.13;;;8.00;80.64
29825;BME280;16713;52.916;12.834;2024-03-02T11:04:18;100090.75;;;8.04;81.19
29825;BME280;16713;52.916;12.834;2024-03-02T11:06:48;100086.09;;;8.08;80.52
29825;BME280;16713;52.916;12.834;2024-03-02T11:09:18;100093.59;;;8.11;80.39
29825;BME280;16713;52.916;12.834;2024-03-02T11:11:49;100098.34;;;8.14;80.06
29825;BME280;16713;52.916;12.834;2024-03-02T11:14:24;100094.88;;;8.17;79.58
29825;BME280;16713;52.916;12.834;2024-03-02T11:16:51;100097.31;;;8.22;79.82
29825;BME280;16713;52.916;12.834;2024-03-02T11:19:18;100087.94;;;8.23;80.06
29825;BME280;16713;52.916;12.834;2024-03-02T11:21:45;100091.09;;;8.25;79.59
29825;BME280;16713;52.916;12.834;2024-03-02T11:26:53;100099.81;;;8.31;79.42
29825;BME280;16713;52.916;12.834;2024-03-02T11:32:02;100107.03;;;8.42;79.35
29825;BME280;16713;52.916;12.834;2024-03-02T11:34:34;100101.63;;;8.46;78.97
29825;BME280;16713;52.916;12.834;2024-03-02T11:37:01;100100.88;;;8.49;79.32
29825;BME280;16713;52.916;12.834;2024-03-02T11:39:28;100102.53;;;8.53;78.87
29825;BME280;16713;52.916;12.834;2024-03-02T11:41:58;100103.31;;;8.54;78.72
29825;BME280;16713;52.916;12.834;2024-03-02T11:44:26;100107.28;;;8.56;78.84
29825;BME280;16713;52.916;12.834;2024-03-02T11:46:59;100112.84;;;8.60;78.37
29825;BME280;16713;52.916;12.834;2024-03-02T11:49:53;100119.53;;;8.62;78.36
29825;BME280;16713;52.916;12.834;2024-03-02T11:52:19;100115.31;;;8.69;77.27
29825;BME280;16713;52.916;12.834;2024-03-02T11:54:47;100120.81;;;8.69;77.69
29825;BME280;16713;52.916;12.834;2024-03-02T11:57:16;100113.78;;;8.71;77.37
29825;BME280;16713;52.916;12.834;2024-03-02T11:59:43;100112.97;;;8.71;77.83
29825;BME280;16713;52.916;12.834;2024-03-02T12:02:17;100116.53;;;8.71;78.06
29825;BME280;16713;52.916;12.834;2024-03-02T12:04:46;100114.63;;;8.75;77.86
29825;BME280;16713;52.916;12.834;2024-03-02T12:07:23;100112.28;;;8.77;77.81
29825;BME280;16713;52.916;12.834;2024-03-02T12:10:00;100110.78;;;8.80;78.23
29825;BME280;16713;52.916;12.834;2024-03-02T12:12:30;100117.09;;;8.84;77.79
29825;BME280;16713;52.916;12.834;2024-03-02T12:14:57;100117.09;;;8.84;77.82
29825;BME280;16713;52.916;12.834;2024-03-02T12:17:23;100122.59;;;8.84;77.74
29825;BME280;16713;52.916;12.834;2024-03-02T12:19:49;100119.53;;;8.89;77.28
29825;BME280;16713;52.916;12.834;2024-03-02T12:22:16;100116.34;;;8.87;76.99
29825;BME280;16713;52.916;12.834;2024-03-02T12:24:44;100118.34;;;8.90;76.82
29825;BME280;16713;52.916;12.834;2024-03-02T12:27:15;100120.31;;;8.89;76.62
29825;BME280;16713;52.916;12.834;2024-03-02T12:29:41;100127.75;;;8.89;76.53
29825;BME280;16713;52.916;12.834;2024-03-02T12:32:08;100126.56;;;8.86;76.77
29825;BME280;16713;52.916;12.834;2024-03-02T12:34:34;100129.31;;;8.90;76.18
29825;BME280;16713;52.916;12.834;2024-03-02T12:37:01;100125.81;;;8.89;76.33
29825;BME280;16713;52.916;12.834;2024-03-02T12:39:28;100125.38;;;8.87;76.04
29825;BME280;16713;52.916;12.834;2024-03-02T12:41:54;100123.81;;;8.86;76.12
29825;BME280;16713;52.916;12.834;2024-03-02T12:44:21;100117.63;;;8.93;75.85
29825;BME280;16713;52.916;12.834;2024-03-02T12:46:48;100120.38;;;8.93;76.09
29825;BME280;16713;52.916;12.834;2024-03-02T12:49:15;100122.75;;;8.94;75.37
29825;BME280;16713;52.916;12.834;2024-03-02T12:51:46;100119.25;;;8.97;75.68
29825;BME280;16713;52.916;12.834;2024-03-02T12:54:18;100112.59;;;8.98;75.60
29825;BME280;16713;52.916;12.834;2024-03-02T12:56:44;100118.91;;;8.99;76.00
29825;BME280;16713;52.916;12.834;2024-03-02T12:59:20;100112.66;;;9.02;75.32
29825;BME280;16713;52.916;12.834;2024-03-02T13:01:55;100113.09;;;9.04;75.26
29825;BME280;16713;52.916;12.834;2024-03-02T13:04:26;100115.03;;;9.03;74.56
29825;BME280;16713;52.916;12.834;2024-03-02T13:06:55;100108.81;;;9.06;74.61
29825;BME280;16713;52.916;12.834;2024-03-02T13:09:24;100112.22;;;9.00;74.69
29825;BME280;16713;52.916;12.834;2024-03-02T13:11:50;100113.03;;;9.00;74.67
29825;BME280;16713;52.916;12.834;2024-03-02T13:14:17;100118.97;;;9.06;74.21